South Royalston, Massachusetts
Current Conditions -  °F | °C
As of 10:52 AM on Friday 31 Oct 2014 (Local Time) from KORE Reporting Station
Overcast Overcast  
Wind Chill: 46°   Ceiling: 5000
Heat Index: 46°   Visibility: 10mi
Dew Point: 36°   Wind: 3mph
Humidity: 68%   Direction: 360°N
Pressure: 30.02"   Gusts: NA
Location:  42.5958°N, 72.2274°W
Report Text: KORE 311452Z AUTO 36003KT 10SM FEW030 OVC050 08/02 A3002 RMK AO2 SLP172 T00780022 58003
Loading
Personal Weather Stations






























Interactive Weather Map
Tropical Storm Tracking
New forecast layout! Learn more

10-Day Weather Forecast

Advertisements
Track Severe Weather on mobile